Time;durP1;ratioP1;P1;durP2;ratioP2;P2;SDS_P1;SDS_P2;PMS_P1;PMS_P2;Temp;Humidity;BMP_temperature;BMP_pressure;BME280_temperature;BME280_humidity;BME280_pressure;Samples;Min_cycle;Max_cycle;Signal;HPM_P1;HPM_P2
2023/07/09 00:01:17;;;;;;;21.80;6.80;;;;;;;;;;110401;1278;22109;-77
2023/07/09 00:03:44;;;;;;;17.80;7.00;;;;;;;;;;110187;1278;22095;-77
2023/07/09 00:06:13;;;;;;;17.60;7.00;;;;;;;;;;110450;1260;22767;-77
2023/07/09 00:08:44;;;;;;;21.60;6.90;;;;;;;;;;110271;1278;22565;-77
2023/07/09 00:11:11;;;;;;;20.80;6.80;;;;;;;;;;110402;1278;23183;-77
2023/07/09 00:13:38;;;;;;;19.30;6.20;;;;;;;;;;110199;1278;22584;-77
2023/07/09 00:16:12;;;;;;;15.50;6.10;;;;;;;;;;110372;1260;22121;-77
2023/07/09 00:18:40;;;;;;;13.80;5.60;;;;;;;;;;110396;1278;22130;-77
2023/07/09 00:21:08;;;;;;;13.80;5.70;;;;;;;;;;110263;1278;22067;-77
2023/07/09 00:23:38;;;;;;;11.70;5.60;;;;;;;;;;110414;1278;22895;-77
2023/07/09 00:26:09;;;;;;;15.60;5.60;;;;;;;;;;110421;1257;22119;-77
2023/07/09 00:28:37;;;;;;;13.00;5.60;;;;;;;;;;110397;1278;22129;-77
2023/07/09 00:31:04;;;;;;;15.40;6.30;;;;;;;;;;110282;1278;22230;-77
2023/07/09 00:33:32;;;;;;;16.40;6.20;;;;;;;;;;110266;1278;23083;-77
2023/07/09 00:36:00;;;;;;;13.60;5.40;;;;;;;;;;110199;1262;22407;-77
2023/07/09 00:38:28;;;;;;;14.00;6.60;;;;;;;;;;110237;1278;22227;-77
2023/07/09 00:40:59;;;;;;;15.60;5.50;;;;;;;;;;110253;1278;22088;-77
2023/07/09 00:43:31;;;;;;;17.20;6.00;;;;;;;;;;110405;1278;22132;-77
2023/07/09 00:46:14;;;;;;;11.60;5.10;;;;;;;;;;110393;1256;22151;-77
2023/07/09 00:48:42;;;;;;;10.40;5.20;;;;;;;;;;110182;1278;22107;-77
2023/07/09 00:51:16;;;;;;;10.60;4.70;;;;;;;;;;110214;1279;22121;-77
2023/07/09 00:53:46;;;;;;;12.60;5.30;;;;;;;;;;110196;1279;22126;-77
2023/07/09 00:56:19;;;;;;;9.80;5.00;;;;;;;;;;110314;1256;22134;-77
2023/07/09 00:58:49;;;;;;;10.00;5.30;;;;;;;;;;110168;1279;22726;-77
2023/07/09 01:01:20;;;;;;;12.60;5.10;;;;;;;;;;110326;1279;22087;-77
2023/07/09 01:03:52;;;;;;;10.20;6.00;;;;;;;;;;110173;1279;22160;-77
2023/07/09 01:06:30;;;;;;;11.60;5.40;;;;;;;;;;110282;1256;22893;-78
2023/07/09 01:09:00;;;;;;;11.40;5.50;;;;;;;;;;110208;1279;23197;-77
2023/07/09 01:11:30;;;;;;;11.80;5.40;;;;;;;;;;110187;1279;22101;-77
2023/07/09 01:14:00;;;;;;;11.70;5.30;;;;;;;;;;110316;1279;22832;-77
2023/07/09 01:16:37;;;;;;;9.70;5.00;;;;;;;;;;110214;1256;22033;-77
2023/07/09 01:19:06;;;;;;;11.50;6.30;;;;;;;;;;110338;1279;22099;-77
2023/07/09 01:21:36;;;;;;;11.50;7.00;;;;;;;;;;110150;1279;22726;-77
2023/07/09 01:24:36;;;;;;;10.90;6.40;;;;;;;;;;110357;1263;22237;-77
2023/07/09 01:27:05;;;;;;;12.30;5.90;;;;;;;;;;110445;1259;22166;-77
2023/07/09 01:29:34;;;;;;;12.00;6.40;;;;;;;;;;110300;1279;22165;-77
2023/07/09 01:32:06;;;;;;;11.40;5.80;;;;;;;;;;110343;1279;22117;-77
2023/07/09 01:34:35;;;;;;;9.50;5.60;;;;;;;;;;110345;1279;22725;-77
2023/07/09 01:37:05;;;;;;;10.30;5.20;;;;;;;;;;110208;1260;22130;-77
2023/07/09 01:39:33;;;;;;;10.90;5.30;;;;;;;;;;110321;1279;22871;-77
2023/07/09 01:42:08;;;;;;;12.30;5.00;;;;;;;;;;110349;1279;22102;-77
2023/07/09 01:44:36;;;;;;;8.20;5.00;;;;;;;;;;110338;1279;22092;-77
2023/07/09 01:47:06;;;;;;;9.50;5.10;;;;;;;;;;110243;1255;22174;-77
2023/07/09 01:49:35;;;;;;;10.30;4.90;;;;;;;;;;110211;1279;22904;-77
2023/07/09 01:59:05;;;;;;;10.00;4.80;;;;;;;;;;104147;1302;544778;-78
2023/07/09 02:01:36;;;;;;;12.10;5.00;;;;;;;;;;106331;1285;24333;-77
2023/07/09 02:04:06;;;;;;;11.20;5.10;;;;;;;;;;106397;1285;22517;-82
2023/07/09 02:06:36;;;;;;;8.70;5.00;;;;;;;;;;106355;1285;24267;-80
2023/07/09 02:09:02;;;;;;;9.20;4.80;;;;;;;;;;106214;1269;22536;-81
2023/07/09 02:11:29;;;;;;;11.10;5.60;;;;;;;;;;106264;1272;25227;-81
2023/07/09 02:13:56;;;;;;;11.80;5.90;;;;;;;;;;104148;1284;3172623;-83
2023/07/09 02:16:28;;;;;;;10.30;5.50;;;;;;;;;;106359;1284;24198;-81
2023/07/09 02:18:55;;;;;;;11.80;6.00;;;;;;;;;;106470;1265;24200;-83
2023/07/09 02:21:22;;;;;;;10.40;5.70;;;;;;;;;;106431;1283;22636;-81
2023/07/09 02:23:49;;;;;;;10.90;5.90;;;;;;;;;;106471;1283;22530;-81
2023/07/09 02:26:15;;;;;;;10.70;5.90;;;;;;;;;;106502;1283;22545;-83
2023/07/09 02:28:45;;;;;;;10.10;5.80;;;;;;;;;;106381;1260;22524;-80
2023/07/09 02:31:12;;;;;;;11.00;5.60;;;;;;;;;;106361;1284;25249;-80
2023/07/09 02:33:39;;;;;;;12.30;5.80;;;;;;;;;;106461;1284;25220;-79
2023/07/09 02:36:06;;;;;;;12.30;5.50;;;;;;;;;;106416;1284;22549;-84
2023/07/09 02:38:33;;;;;;;11.60;5.60;;;;;;;;;;106366;1260;22607;-77
2023/07/09 02:41:04;;;;;;;10.50;5.70;;;;;;;;;;106441;1284;22526;-78
2023/07/09 02:43:31;;;;;;;9.60;6.00;;;;;;;;;;106294;1284;24236;-79
2023/07/09 02:45:57;;;;;;;13.10;6.10;;;;;;;;;;106477;1284;23720;-84
2023/07/09 02:48:24;;;;;;;11.00;6.00;;;;;;;;;;106461;1284;24358;-77
2023/07/09 02:50:54;;;;;;;12.10;5.90;;;;;;;;;;106377;1284;22529;-77
2023/07/09 02:53:21;;;;;;;10.00;5.90;;;;;;;;;;106906;1276;25278;-80
2023/07/09 02:55:47;;;;;;;10.10;5.50;;;;;;;;;;106925;1276;22995;-80
2023/07/09 02:58:17;;;;;;;10.70;5.60;;;;;;;;;;106871;1274;22546;-82
2023/07/09 03:00:51;;;;;;;10.70;5.40;;;;;;;;;;106826;1259;22517;-83
2023/07/09 03:03:19;;;;;;;13.80;5.60;;;;;;;;;;106878;1277;22493;-77
2023/07/09 03:05:46;;;;;;;12.50;4.90;;;;;;;;;;106818;1277;22517;-78
2023/07/09 03:08:14;;;;;;;16.60;5.60;;;;;;;;;;106808;1277;22507;-85
2023/07/09 03:10:44;;;;;;;16.50;5.40;;;;;;;;;;106960;1258;22521;-79
2023/07/09 03:13:11;;;;;;;13.00;5.40;;;;;;;;;;106943;1275;24228;-78
2023/07/09 03:15:38;;;;;;;19.20;6.10;;;;;;;;;;106891;1276;25382;-84
2023/07/09 03:18:07;;;;;;;18.70;5.30;;;;;;;;;;106915;1276;24295;-80
2023/07/09 03:20:35;;;;;;;15.80;5.10;;;;;;;;;;106925;1260;25363;-82
2023/07/09 03:23:02;;;;;;;11.30;4.70;;;;;;;;;;106933;1276;24439;-78
2023/07/09 03:25:32;;;;;;;13.40;4.90;;;;;;;;;;106852;1276;24193;-85
2023/07/09 03:27:58;;;;;;;12.90;4.70;;;;;;;;;;106911;1276;22466;-83
2023/07/09 03:30:25;;;;;;;11.10;4.90;;;;;;;;;;106931;1259;22535;-80
2023/07/09 03:32:54;;;;;;;12.50;5.20;;;;;;;;;;106921;1276;22546;-80
2023/07/09 03:35:23;;;;;;;9.70;4.90;;;;;;;;;;106854;1276;22541;-85
2023/07/09 03:37:50;;;;;;;8.60;4.40;;;;;;;;;;106887;1276;22517;-79
2023/07/09 03:40:21;;;;;;;10.60;5.50;;;;;;;;;;106876;1271;25214;-84
2023/07/09 03:42:51;;;;;;;10.60;5.30;;;;;;;;;;106920;1277;24224;-83
2023/07/09 03:45:18;;;;;;;11.30;5.20;;;;;;;;;;106892;1277;22999;-85
2023/07/09 03:47:44;;;;;;;9.50;5.00;;;;;;;;;;106775;1278;22595;-78
2023/07/09 03:50:20;;;;;;;12.50;5.30;;;;;;;;;;106887;1254;22527;-81
2023/07/09 03:52:47;;;;;;;10.30;4.80;;;;;;;;;;106846;1277;22495;-79
2023/07/09 03:55:14;;;;;;;10.70;5.00;;;;;;;;;;106892;1277;23198;-82
2023/07/09 03:57:41;;;;;;;11.60;5.20;;;;;;;;;;106900;1277;24292;-80
2023/07/09 04:00:10;;;;;;;9.20;4.80;;;;;;;;;;106889;1277;22608;-78
2023/07/09 04:02:44;;;;;;;9.90;5.10;;;;;;;;;;106732;1262;26714;-78
2023/07/09 04:05:11;;;;;;;9.30;4.60;;;;;;;;;;106934;1275;22543;-78
2023/07/09 04:07:38;;;;;;;9.30;5.40;;;;;;;;;;106908;1275;22947;-84
2023/07/09 04:10:05;;;;;;;9.20;5.50;;;;;;;;;;106912;1275;22538;-77
2023/07/09 04:12:32;;;;;;;11.20;5.20;;;;;;;;;;107157;1254;22534;-78
2023/07/09 04:14:59;;;;;;;8.80;4.40;;;;;;;;;;106891;1275;24320;-84
2023/07/09 04:17:26;;;;;;;9.20;4.10;;;;;;;;;;106968;1274;22476;-83
2023/07/09 04:19:53;;;;;;;9.30;3.90;;;;;;;;;;107149;1275;22536;-80
2023/07/09 04:22:21;;;;;;;9.70;4.40;;;;;;;;;;106932;1260;25227;-80
2023/07/09 04:24:48;;;;;;;8.50;4.30;;;;;;;;;;106946;1275;22520;-79
2023/07/09 04:27:17;;;;;;;10.30;4.80;;;;;;;;;;106844;1275;24207;-82
2023/07/09 04:29:44;;;;;;;9.30;4.50;;;;;;;;;;107100;1275;24323;-80
2023/07/09 04:32:21;;;;;;;8.50;4.30;;;;;;;;;;106959;1259;22605;-81
2023/07/09 04:34:48;;;;;;;10.90;4.60;;;;;;;;;;106976;1275;25343;-81
2023/07/09 04:37:16;;;;;;;9.20;4.70;;;;;;;;;;106958;1275;22679;-82
2023/07/09 04:39:43;;;;;;;8.80;4.50;;;;;;;;;;106967;1275;24310;-80
2023/07/09 04:42:11;;;;;;;10.60;4.70;;;;;;;;;;106894;1275;24692;-79
2023/07/09 04:44:37;;;;;;;11.00;4.90;;;;;;;;;;106899;1275;22524;-83
2023/07/09 04:47:05;;;;;;;12.10;5.20;;;;;;;;;;106986;1275;23180;-82
2023/07/09 04:49:32;;;;;;;11.20;5.00;;;;;;;;;;107087;1275;22521;-78
2023/07/09 04:51:59;;;;;;;10.00;4.60;;;;;;;;;;106947;1259;22521;-83
2023/07/09 04:54:27;;;;;;;9.60;4.80;;;;;;;;;;107017;1275;22528;-84
2023/07/09 04:56:54;;;;;;;9.50;4.50;;;;;;;;;;107138;1275;22523;-81
2023/07/09 04:59:24;;;;;;;9.10;4.20;;;;;;;;;;106909;1276;22521;-77
2023/07/09 05:01:51;;;;;;;8.50;4.20;;;;;;;;;;106941;1254;25390;-78
2023/07/09 05:04:38;;;;;;;10.40;5.40;;;;;;;;;;106984;1275;25315;-78
2023/07/09 05:07:05;;;;;;;9.20;4.30;;;;;;;;;;107090;1276;24393;-80
2023/07/09 05:09:32;;;;;;;10.20;4.30;;;;;;;;;;106960;1275;24171;-80
2023/07/09 05:11:59;;;;;;;11.00;4.90;;;;;;;;;;106933;1254;22521;-80
2023/07/09 05:14:27;;;;;;;9.20;4.20;;;;;;;;;;106982;1276;24372;-83
2023/07/09 05:16:54;;;;;;;8.90;4.40;;;;;;;;;;107075;1266;22644;-82
2023/07/09 05:19:21;;;;;;;8.60;4.40;;;;;;;;;;106912;1276;22522;-79
2023/07/09 05:21:48;;;;;;;8.40;3.90;;;;;;;;;;106893;1276;23720;-78
2023/07/09 05:24:20;;;;;;;9.70;4.00;;;;;;;;;;106928;1264;24242;-82
2023/07/09 05:26:47;;;;;;;12.50;4.30;;;;;;;;;;106967;1275;25353;-82
2023/07/09 05:29:14;;;;;;;8.20;4.60;;;;;;;;;;106940;1276;23855;-81
2023/07/09 05:31:49;;;;;;;12.20;4.70;;;;;;;;;;107049;1276;24196;-78
2023/07/09 05:34:18;;;;;;;8.40;4.30;;;;;;;;;;106950;1275;22993;-82
2023/07/09 05:36:48;;;;;;;10.20;4.40;;;;;;;;;;106915;1276;22523;-82
2023/07/09 05:39:16;;;;;;;11.40;4.20;;;;;;;;;;106996;1276;24214;-81
2023/07/09 05:41:43;;;;;;;11.60;4.20;;;;;;;;;;106923;1276;25409;-78
2023/07/09 05:44:19;;;;;;;9.50;4.70;;;;;;;;;;106955;1260;22999;-86
2023/07/09 05:46:49;;;;;;;10.30;4.40;;;;;;;;;;107090;1275;23912;-83
2023/07/09 05:49:18;;;;;;;8.50;4.30;;;;;;;;;;106994;1275;25353;-81
2023/07/09 05:51:45;;;;;;;10.80;5.30;;;;;;;;;;106949;1275;25450;-79
2023/07/09 05:54:12;;;;;;;9.30;4.40;;;;;;;;;;106963;1259;24053;-79
2023/07/09 05:56:42;;;;;;;9.10;4.80;;;;;;;;;;107056;1272;22484;-80
2023/07/09 05:59:09;;;;;;;10.00;4.90;;;;;;;;;;107060;1275;23106;-83
2023/07/09 06:01:36;;;;;;;10.20;5.60;;;;;;;;;;107171;1275;22526;-82
2023/07/09 06:04:25;;;;;;;8.70;4.80;;;;;;;;;;107076;1256;24331;-81
2023/07/09 06:06:52;;;;;;;8.20;4.80;;;;;;;;;;107037;1275;25335;-78
2023/07/09 06:09:19;;;;;;;8.70;4.90;;;;;;;;;;107106;1275;23863;-82
2023/07/09 06:11:55;;;;;;;8.50;4.90;;;;;;;;;;107182;1275;23536;-79
2023/07/09 06:14:22;;;;;;;10.60;4.50;;;;;;;;;;107071;1256;22523;-78
2023/07/09 06:16:49;;;;;;;9.90;4.50;;;;;;;;;;107081;1270;22646;-79
2023/07/09 06:19:18;;;;;;;8.90;5.00;;;;;;;;;;106920;1275;23003;-81
2023/07/09 06:21:45;;;;;;;8.50;5.20;;;;;;;;;;107080;1275;22496;-79
2023/07/09 06:24:24;;;;;;;8.30;5.20;;;;;;;;;;106902;1275;22508;-79
2023/07/09 06:26:51;;;;;;;9.40;4.50;;;;;;;;;;106949;1275;22601;-83
2023/07/09 06:29:18;;;;;;;11.40;4.40;;;;;;;;;;107000;1275;24240;-82
2023/07/09 06:31:44;;;;;;;8.80;5.20;;;;;;;;;;107097;1275;24953;-78
2023/07/09 06:34:11;;;;;;;7.80;4.40;;;;;;;;;;107085;1257;22539;-81
2023/07/09 06:36:38;;;;;;;8.00;4.30;;;;;;;;;;107071;1275;25397;-80
2023/07/09 06:39:05;;;;;;;8.00;4.00;;;;;;;;;;106944;1274;22523;-81
2023/07/09 06:41:38;;;;;;;9.40;4.80;;;;;;;;;;107147;1275;22539;-78
2023/07/09 06:44:06;;;;;;;9.90;4.60;;;;;;;;;;107143;1253;22521;-82
2023/07/09 06:46:33;;;;;;;8.20;4.20;;;;;;;;;;106969;1275;22750;-81
2023/07/09 06:49:00;;;;;;;8.60;4.70;;;;;;;;;;106959;1275;23867;-84
2023/07/09 06:51:27;;;;;;;8.30;4.30;;;;;;;;;;106986;1254;24228;-85
2023/07/09 06:53:54;;;;;;;8.30;3.90;;;;;;;;;;107072;1261;25259;-80
2023/07/09 06:56:21;;;;;;;9.10;4.30;;;;;;;;;;106950;1275;24180;-84
2023/07/09 06:58:48;;;;;;;8.70;4.50;;;;;;;;;;107091;1275;25315;-78
2023/07/09 07:01:15;;;;;;;8.30;4.00;;;;;;;;;;107142;1275;22543;-81
2023/07/09 07:03:42;;;;;;;8.50;3.90;;;;;;;;;;107082;1275;25305;-78
2023/07/09 07:06:09;;;;;;;8.20;4.30;;;;;;;;;;106966;1275;22824;-82
2023/07/09 07:08:35;;;;;;;10.20;5.00;;;;;;;;;;107130;1275;22753;-80
2023/07/09 07:11:04;;;;;;;9.00;4.50;;;;;;;;;;106880;1275;24036;-77
2023/07/09 07:13:32;;;;;;;8.00;3.80;;;;;;;;;;110379;1275;22376;-78
2023/07/09 07:15:59;;;;;;;7.40;3.50;;;;;;;;;;110439;1259;22601;-78
2023/07/09 07:18:26;;;;;;;6.40;3.10;;;;;;;;;;110584;1272;22120;-78
2023/07/09 07:20:53;;;;;;;7.40;3.90;;;;;;;;;;110528;1276;22128;-78
2023/07/09 07:23:19;;;;;;;6.90;3.80;;;;;;;;;;110624;1276;22907;-78
2023/07/09 07:25:47;;;;;;;7.20;3.50;;;;;;;;;;110754;1256;22456;-78
2023/07/09 07:28:14;;;;;;;6.30;3.10;;;;;;;;;;110482;1276;22878;-78
2023/07/09 07:30:41;;;;;;;6.90;3.50;;;;;;;;;;110641;1275;22885;-78
2023/07/09 07:33:08;;;;;;;7.60;3.60;;;;;;;;;;110697;1276;22301;-78
2023/07/09 07:35:36;;;;;;;6.80;3.40;;;;;;;;;;110533;1259;21901;-78
2023/07/09 07:38:03;;;;;;;6.20;2.80;;;;;;;;;;110287;1273;22164;-78
2023/07/09 07:40:30;;;;;;;5.90;3.00;;;;;;;;;;110350;1276;22350;-78
2023/07/09 07:42:56;;;;;;;7.30;3.10;;;;;;;;;;110453;1276;22715;-78
2023/07/09 07:45:23;;;;;;;6.90;3.20;;;;;;;;;;110663;1256;23015;-78
2023/07/09 07:47:52;;;;;;;9.00;3.20;;;;;;;;;;110468;1276;22218;-78
2023/07/09 07:50:18;;;;;;;7.50;3.40;;;;;;;;;;110446;1276;22085;-79
2023/07/09 07:52:45;;;;;;;6.60;2.80;;;;;;;;;;110332;1275;22500;-78
2023/07/09 07:55:12;;;;;;;5.80;3.00;;;;;;;;;;110672;1253;22170;-78
2023/07/09 07:57:38;;;;;;;7.50;3.40;;;;;;;;;;110264;1277;22113;-77
2023/07/09 08:00:06;;;;;;;6.50;3.10;;;;;;;;;;110256;1272;22730;-78
2023/07/09 08:02:39;;;;;;;7.20;2.90;;;;;;;;;;110288;1277;22103;-77
2023/07/09 08:05:06;;;;;;;7.50;3.20;;;;;;;;;;110269;1276;22361;-79
2023/07/09 08:07:33;;;;;;;6.80;3.20;;;;;;;;;;110348;1258;22181;-79
2023/07/09 08:10:00;;;;;;;6.10;2.80;;;;;;;;;;110348;1276;22269;-79
2023/07/09 08:12:26;;;;;;;6.40;2.80;;;;;;;;;;110327;1276;22740;-79
2023/07/09 08:14:53;;;;;;;7.60;3.40;;;;;;;;;;110554;1276;22115;-78
2023/07/09 08:17:20;;;;;;;6.40;3.20;;;;;;;;;;110521;1260;22164;-79
2023/07/09 08:19:51;;;;;;;6.90;3.10;;;;;;;;;;110438;1277;22192;-79
2023/07/09 08:22:20;;;;;;;7.20;3.00;;;;;;;;;;110357;1277;22206;-79
2023/07/09 08:24:47;;;;;;;7.10;3.60;;;;;;;;;;110315;1277;22985;-78
2023/07/09 08:27:14;;;;;;;6.20;2.90;;;;;;;;;;110819;1258;22137;-79
2023/07/09 08:29:42;;;;;;;7.60;3.60;;;;;;;;;;110329;1276;22081;-78
2023/07/09 08:32:09;;;;;;;9.10;3.70;;;;;;;;;;110332;1276;22161;-79
2023/07/09 08:34:37;;;;;;;7.90;3.40;;;;;;;;;;110344;1276;22100;-78
2023/07/09 08:37:04;;;;;;;7.60;3.80;;;;;;;;;;110606;1260;22221;-78
2023/07/09 08:39:30;;;;;;;6.40;3.40;;;;;;;;;;110316;1277;22120;-79
2023/07/09 08:42:03;;;;;;;7.70;3.60;;;;;;;;;;110464;1277;22117;-79
2023/07/09 08:44:45;;;;;;;7.90;3.40;;;;;;;;;;110292;1277;22079;-79
2023/07/09 08:47:24;;;;;;;6.00;3.00;;;;;;;;;;110388;1259;22008;-79
2023/07/09 08:49:55;;;;;;;8.20;3.50;;;;;;;;;;110278;1276;22191;-80
2023/07/09 08:52:22;;;;;;;6.80;3.10;;;;;;;;;;110322;1277;22174;-80
2023/07/09 08:54:49;;;;;;;7.50;3.20;;;;;;;;;;110237;1278;22116;-80
2023/07/09 08:57:23;;;;;;;7.80;3.00;;;;;;;;;;110508;1259;22449;-79
2023/07/09 08:59:53;;;;;;;8.60;3.30;;;;;;;;;;110563;1276;22110;-79
2023/07/09 09:02:33;;;;;;;7.40;4.20;;;;;;;;;;110338;1275;22101;-78
2023/07/09 09:05:00;;;;;;;8.50;3.90;;;;;;;;;;110197;1276;22080;-79
2023/07/09 09:07:36;;;;;;;8.00;3.40;;;;;;;;;;110515;1267;22768;-79
2023/07/09 09:10:03;;;;;;;7.30;3.50;;;;;;;;;;110568;1276;22099;-78
2023/07/09 09:12:35;;;;;;;7.30;3.20;;;;;;;;;;110472;1276;22110;-78
2023/07/09 09:15:11;;;;;;;6.60;3.80;;;;;;;;;;110607;1276;22511;-79
2023/07/09 09:17:39;;;;;;;6.40;3.20;;;;;;;;;;110691;1260;22175;-78
2023/07/09 09:20:22;;;;;;;8.00;3.50;;;;;;;;;;110625;1276;22951;-78
2023/07/09 09:23:12;;;;;;;7.40;3.60;;;;;;;;;;110480;1276;22143;-79
2023/07/09 09:25:41;;;;;;;8.40;3.70;;;;;;;;;;110483;1276;22329;-79
2023/07/09 09:28:08;;;;;;;6.50;3.80;;;;;;;;;;110859;1257;22889;-78
2023/07/09 09:30:35;;;;;;;7.70;3.70;;;;;;;;;;110662;1276;22099;-79
2023/07/09 09:33:07;;;;;;;7.60;3.70;;;;;;;;;;110549;1276;22148;-78
2023/07/09 09:35:38;;;;;;;6.00;3.40;;;;;;;;;;110615;1276;21975;-78
2023/07/09 09:38:12;;;;;;;7.30;3.60;;;;;;;;;;110422;1260;21989;-77
2023/07/09 09:40:39;;;;;;;7.30;3.50;;;;;;;;;;110447;1276;22095;-78
2023/07/09 09:43:13;;;;;;;8.60;4.10;;;;;;;;;;110380;1276;22173;-77
2023/07/09 09:45:41;;;;;;;6.70;3.20;;;;;;;;;;110474;1276;22867;-77
2023/07/09 09:48:14;;;;;;;6.20;3.00;;;;;;;;;;110593;1262;22184;-77
2023/07/09 09:50:41;;;;;;;7.10;3.60;;;;;;;;;;110359;1276;22822;-77
2023/07/09 09:53:14;;;;;;;6.80;3.60;;;;;;;;;;110509;1276;22838;-78
2023/07/09 09:55:41;;;;;;;7.20;3.30;;;;;;;;;;110463;1276;22247;-78
2023/07/09 09:58:13;;;;;;;10.50;3.30;;;;;;;;;;110455;1263;22132;-78
2023/07/09 10:00:47;;;;;;;6.60;3.00;;;;;;;;;;110468;1276;22121;-77
2023/07/09 10:03:14;;;;;;;7.80;3.30;;;;;;;;;;110361;1276;23218;-78
2023/07/09 10:05:44;;;;;;;6.00;3.40;;;;;;;;;;110280;1276;22199;-78
2023/07/09 10:08:32;;;;;;;7.40;3.00;;;;;;;;;;110492;1259;22114;-77
2023/07/09 10:11:26;;;;;;;6.10;3.10;;;;;;;;;;110522;1276;22789;-78
2023/07/09 10:13:54;;;;;;;5.70;3.20;;;;;;;;;;110282;1276;22119;-78
2023/07/09 10:16:37;;;;;;;6.90;3.90;;;;;;;;;;110298;1276;22860;-77
2023/07/09 10:19:11;;;;;;;5.90;3.40;;;;;;;;;;110594;1260;22133;-78
2023/07/09 10:21:42;;;;;;;6.80;3.20;;;;;;;;;;110471;1276;22399;-78
2023/07/09 10:24:22;;;;;;;6.80;3.20;;;;;;;;;;110459;1276;22931;-78
2023/07/09 10:26:56;;;;;;;6.40;3.80;;;;;;;;;;110400;1276;22408;-78
2023/07/09 10:29:35;;;;;;;6.80;4.10;;;;;;;;;;110728;1260;22879;-78
2023/07/09 10:32:11;;;;;;;7.30;3.40;;;;;;;;;;110521;1276;22221;-78
2023/07/09 10:34:46;;;;;;;6.80;3.10;;;;;;;;;;110509;1276;22092;-78
2023/07/09 10:37:13;;;;;;;7.70;4.00;;;;;;;;;;110458;1276;22108;-79
2023/07/09 10:39:46;;;;;;;7.10;3.20;;;;;;;;;;110747;1260;22122;-78
2023/07/09 10:42:30;;;;;;;7.20;3.60;;;;;;;;;;110297;1276;22086;-81
2023/07/09 10:45:01;;;;;;;7.90;3.80;;;;;;;;;;110374;1276;22149;-79
2023/07/09 10:47:33;;;;;;;9.90;3.90;;;;;;;;;;110277;1276;22107;-78
2023/07/09 10:50:01;;;;;;;6.80;3.30;;;;;;;;;;110521;1257;22434;-78
2023/07/09 10:52:30;;;;;;;7.30;3.70;;;;;;;;;;110520;1276;22463;-78
2023/07/09 10:55:01;;;;;;;7.40;3.80;;;;;;;;;;110309;1276;22119;-79
2023/07/09 10:57:29;;;;;;;7.30;3.60;;;;;;;;;;110349;1276;22102;-79
2023/07/09 10:59:56;;;;;;;6.80;3.10;;;;;;;;;;110603;1255;22145;-79
2023/07/09 11:02:34;;;;;;;6.80;3.40;;;;;;;;;;110616;1276;22053;-79
2023/07/09 11:05:02;;;;;;;7.30;3.00;;;;;;;;;;110486;1276;22461;-79
2023/07/09 11:07:35;;;;;;;7.60;3.40;;;;;;;;;;110413;1276;22257;-79
2023/07/09 11:10:22;;;;;;;7.50;4.10;;;;;;;;;;110575;1254;22204;-79
2023/07/09 11:12:58;;;;;;;9.30;4.10;;;;;;;;;;110429;1273;22730;-79
2023/07/09 11:15:33;;;;;;;7.10;3.40;;;;;;;;;;110201;1276;22975;-79
2023/07/09 11:18:00;;;;;;;6.70;3.70;;;;;;;;;;110543;1276;22185;-79
2023/07/09 11:20:34;;;;;;;7.50;3.80;;;;;;;;;;110468;1260;22888;-79
2023/07/09 11:23:02;;;;;;;6.40;3.40;;;;;;;;;;110244;1277;22138;-79
2023/07/09 11:25:29;;;;;;;6.80;3.40;;;;;;;;;;110310;1277;22129;-79
2023/07/09 11:28:04;;;;;;;8.00;3.70;;;;;;;;;;110449;1277;22123;-80
2023/07/09 11:30:31;;;;;;;6.90;3.90;;;;;;;;;;110537;1259;22121;-78
2023/07/09 11:32:58;;;;;;;7.00;3.60;;;;;;;;;;110469;1276;22113;-80
2023/07/09 11:35:26;;;;;;;6.80;3.50;;;;;;;;;;110340;1276;22205;-79
2023/07/09 11:37:54;;;;;;;7.90;3.90;;;;;;;;;;110514;1276;22201;-79
2023/07/09 11:40:21;;;;;;;6.20;3.20;;;;;;;;;;110680;1254;22184;-80
2023/07/09 11:42:53;;;;;;;7.10;3.40;;;;;;;;;;110226;1277;22219;-80
2023/07/09 11:45:27;;;;;;;7.90;3.80;;;;;;;;;;110344;1278;22116;-79
2023/07/09 11:47:54;;;;;;;7.80;3.70;;;;;;;;;;110302;1277;22520;-78
2023/07/09 11:50:25;;;;;;;7.40;3.50;;;;;;;;;;110402;1254;22218;-79
2023/07/09 11:52:59;;;;;;;6.80;3.60;;;;;;;;;;110470;1276;22083;-80
2023/07/09 11:55:28;;;;;;;8.80;4.00;;;;;;;;;;110277;1277;22172;-80
2023/07/09 11:57:56;;;;;;;9.80;3.80;;;;;;;;;;110399;1276;22095;-79
2023/07/09 12:00:23;;;;;;;6.90;3.50;;;;;;;;;;110330;1257;22903;-80
2023/07/09 12:02:51;;;;;;;7.80;3.80;;;;;;;;;;110342;1278;22096;-78
2023/07/09 12:05:19;;;;;;;7.60;3.60;;;;;;;;;;110313;1278;22105;-79
2023/07/09 12:07:46;;;;;;;7.10;3.60;;;;;;;;;;110290;1278;22071;-80
2023/07/09 12:10:20;;;;;;;6.90;3.70;;;;;;;;;;110373;1254;22921;-79
2023/07/09 12:12:47;;;;;;;7.80;3.60;;;;;;;;;;110319;1276;22101;-78
2023/07/09 12:15:19;;;;;;;7.00;3.20;;;;;;;;;;110432;1276;22819;-79
2023/07/09 12:17:54;;;;;;;7.80;3.90;;;;;;;;;;110442;1276;22566;-79
2023/07/09 12:20:22;;;;;;;6.80;3.60;;;;;;;;;;110327;1254;22192;-79
2023/07/09 12:22:50;;;;;;;7.20;4.00;;;;;;;;;;110400;1278;22778;-78
2023/07/09 12:25:19;;;;;;;8.30;4.10;;;;;;;;;;110452;1273;22135;-79
2023/07/09 12:27:46;;;;;;;7.50;3.80;;;;;;;;;;110214;1278;22103;-79
2023/07/09 12:30:13;;;;;;;8.00;3.70;;;;;;;;;;110309;1278;22141;-79
2023/07/09 12:32:44;;;;;;;8.60;4.00;;;;;;;;;;110808;1260;22145;-79
2023/07/09 12:35:13;;;;;;;7.50;3.40;;;;;;;;;;110490;1276;21991;-80
2023/07/09 12:37:41;;;;;;;7.20;3.70;;;;;;;;;;110193;1276;22102;-78
2023/07/09 12:40:13;;;;;;;7.10;3.60;;;;;;;;;;110476;1276;22083;-81
2023/07/09 12:42:42;;;;;;;9.50;3.30;;;;;;;;;;110777;1259;23212;-78
2023/07/09 12:45:16;;;;;;;7.60;3.90;;;;;;;;;;110355;1264;22148;-79
2023/07/09 12:47:44;;;;;;;7.80;3.60;;;;;;;;;;110421;1277;22285;-79
2023/07/09 12:50:26;;;;;;;7.90;4.20;;;;;;;;;;110399;1278;22685;-80
2023/07/09 12:52:56;;;;;;;8.00;3.80;;;;;;;;;;110672;1256;22136;-80
2023/07/09 12:55:26;;;;;;;7.00;3.60;;;;;;;;;;110193;1276;22119;-80
2023/07/09 12:57:59;;;;;;;9.30;3.90;;;;;;;;;;110402;1277;22165;-80
2023/07/09 13:00:30;;;;;;;8.10;3.40;;;;;;;;;;110231;1277;22134;-80
2023/07/09 13:02:58;;;;;;;6.80;3.90;;;;;;;;;;110336;1257;21977;-80
2023/07/09 13:05:26;;;;;;;7.40;3.50;;;;;;;;;;110166;1278;22172;-80
2023/07/09 13:08:01;;;;;;;9.30;3.80;;;;;;;;;;110289;1278;22118;-79
2023/07/09 13:10:31;;;;;;;7.60;3.80;;;;;;;;;;110379;1276;22128;-79
2023/07/09 13:13:03;;;;;;;7.10;3.70;;;;;;;;;;110597;1259;22130;-78
2023/07/09 13:15:38;;;;;;;8.20;4.40;;;;;;;;;;110416;1277;22118;-79
2023/07/09 13:18:08;;;;;;;10.10;3.60;;;;;;;;;;110387;1277;22125;-79
2023/07/09 13:20:39;;;;;;;10.30;3.80;;;;;;;;;;110385;1277;22107;-78
2023/07/09 13:23:17;;;;;;;8.20;4.10;;;;;;;;;;110534;1260;22107;-78
2023/07/09 13:25:44;;;;;;;8.20;4.30;;;;;;;;;;110174;1278;22156;-78
2023/07/09 13:28:15;;;;;;;8.10;3.80;;;;;;;;;;110385;1278;22196;-79
2023/07/09 13:30:42;;;;;;;6.90;3.80;;;;;;;;;;110146;1278;22088;-79
2023/07/09 13:33:10;;;;;;;7.90;4.30;;;;;;;;;;110545;1260;22191;-79
2023/07/09 13:35:38;;;;;;;7.00;3.90;;;;;;;;;;110157;1277;22096;-79
2023/07/09 13:38:18;;;;;;;7.90;4.40;;;;;;;;;;110455;1277;22166;-80
2023/07/09 13:40:47;;;;;;;8.20;3.90;;;;;;;;;;110224;1277;22118;-79
2023/07/09 13:43:17;;;;;;;7.30;4.30;;;;;;;;;;110299;1262;22320;-79
2023/07/09 13:45:48;;;;;;;9.10;4.20;;;;;;;;;;110255;1278;22115;-86
2023/07/09 13:48:16;;;;;;;6.90;3.90;;;;;;;;;;110293;1278;22134;-80
2023/07/09 13:50:46;;;;;;;8.50;3.90;;;;;;;;;;110303;1278;22699;-80
2023/07/09 13:53:16;;;;;;;8.60;3.80;;;;;;;;;;110274;1262;22127;-80
2023/07/09 13:55:47;;;;;;;9.40;3.90;;;;;;;;;;110331;1272;22126;-79
2023/07/09 13:58:17;;;;;;;7.90;3.70;;;;;;;;;;110312;1278;22116;-80
2023/07/09 14:00:48;;;;;;;9.00;3.80;;;;;;;;;;110326;1278;22986;-80
2023/07/09 14:03:23;;;;;;;10.00;4.10;;;;;;;;;;110406;1260;22243;-80
2023/07/09 14:05:52;;;;;;;7.70;4.00;;;;;;;;;;110337;1278;22146;-81
2023/07/09 14:08:25;;;;;;;7.60;3.90;;;;;;;;;;110139;1266;22694;-81
2023/07/09 14:10:55;;;;;;;7.00;3.50;;;;;;;;;;110144;1279;22082;-80
2023/07/09 14:13:25;;;;;;;6.80;3.80;;;;;;;;;;107791;1258;3313038;-80
2023/07/09 14:15:54;;;;;;;9.40;4.50;;;;;;;;;;110180;1278;22124;-81
2023/07/09 14:18:23;;;;;;;8.80;4.40;;;;;;;;;;110173;1278;22095;-80
2023/07/09 14:20:53;;;;;;;7.60;3.80;;;;;;;;;;110397;1278;22151;-81
2023/07/09 14:23:27;;;;;;;7.50;4.10;;;;;;;;;;110297;1257;23000;-81
2023/07/09 14:25:56;;;;;;;7.10;3.90;;;;;;;;;;110208;1278;22119;-81
2023/07/09 14:28:25;;;;;;;8.00;4.40;;;;;;;;;;110227;1278;22778;-80
2023/07/09 14:30:53;;;;;;;7.90;4.20;;;;;;;;;;110342;1278;22115;-79
2023/07/09 14:33:22;;;;;;;7.40;3.70;;;;;;;;;;110210;1261;22850;-79
2023/07/09 14:35:51;;;;;;;8.60;4.30;;;;;;;;;;110169;1278;22130;-78
2023/07/09 14:38:22;;;;;;;8.70;4.20;;;;;;;;;;110195;1276;22118;-79
2023/07/09 14:40:53;;;;;;;7.20;3.80;;;;;;;;;;110325;1278;22327;-79
2023/07/09 14:43:23;;;;;;;7.10;3.40;;;;;;;;;;110438;1256;22767;-79
2023/07/09 14:45:51;;;;;;;7.00;3.70;;;;;;;;;;110124;1278;22123;-80
2023/07/09 14:48:21;;;;;;;7.20;4.20;;;;;;;;;;110045;1279;22148;-79